createdAt,value
2022-12-02T00:00:32.726Z,78.8
2022-12-02T00:01:32.633Z,78.8
2022-12-02T00:02:32.860Z,78.8
2022-12-02T00:03:32.829Z,78.8
2022-12-02T00:04:32.692Z,78.8
2022-12-02T00:05:32.672Z,78.8
2022-12-02T00:06:32.683Z,79.1
2022-12-02T00:07:32.741Z,79.1
2022-12-02T00:08:32.674Z,79.1
2022-12-02T00:09:32.673Z,79.1
2022-12-02T00:10:32.637Z,79.1
2022-12-02T00:11:32.681Z,79.1
2022-12-02T00:12:32.652Z,79.1
2022-12-02T00:13:32.650Z,79.1
2022-12-02T00:14:32.636Z,79.1
2022-12-02T00:15:32.707Z,79.1
2022-12-02T00:16:32.716Z,79.1
2022-12-02T00:17:32.641Z,79.1
2022-12-02T00:18:32.680Z,79.2
2022-12-02T00:19:32.683Z,79.2
2022-12-02T00:20:32.677Z,79.2
2022-12-02T00:21:32.686Z,79.2
2022-12-02T00:22:32.682Z,79.2
2022-12-02T00:23:32.687Z,79.2
2022-12-02T00:24:32.704Z,79.2
2022-12-02T00:25:32.674Z,79.2
2022-12-02T00:26:32.681Z,79.2
2022-12-02T00:27:32.682Z,79.2
2022-12-02T00:28:32.681Z,79.2
2022-12-02T00:29:32.776Z,79.2
2022-12-02T00:30:32.687Z,79.2
2022-12-02T00:31:32.751Z,79.2
2022-12-02T00:32:32.715Z,79.2
2022-12-02T00:33:32.669Z,79.2
2022-12-02T00:34:32.701Z,79.2
2022-12-02T00:35:32.698Z,79.2
2022-12-02T00:36:32.698Z,79.2
2022-12-02T00:37:32.714Z,79.2
2022-12-02T00:38:32.676Z,79.2
2022-12-02T00:39:32.704Z,79.2
2022-12-02T00:40:32.673Z,79.2
2022-12-02T00:41:32.670Z,79.2
2022-12-02T00:42:32.676Z,79.2
2022-12-02T00:43:32.690Z,79.2
2022-12-02T00:44:32.702Z,79.2
2022-12-02T00:45:32.741Z,79.2
2022-12-02T00:46:32.743Z,79.2
2022-12-02T00:47:32.686Z,79.2
2022-12-02T00:48:32.673Z,79.2
2022-12-02T00:49:32.735Z,79.2
2022-12-02T00:50:32.700Z,79.2
2022-12-02T00:51:32.701Z,79.2
2022-12-02T00:52:32.702Z,79.2
2022-12-02T00:53:32.711Z,79.2
2022-12-02T00:54:32.717Z,79.2
2022-12-02T00:55:32.786Z,79.2
2022-12-02T00:56:32.720Z,79.2
2022-12-02T00:57:32.714Z,79.2
2022-12-02T00:58:32.747Z,79.2
2022-12-02T00:59:32.732Z,79.2
2022-12-02T01:00:32.853Z,79.2
2022-12-02T01:01:32.868Z,79.2
2022-12-02T01:02:32.796Z,79.2
2022-12-02T01:03:32.733Z,79.2
2022-12-02T01:04:32.764Z,79.2
2022-12-02T01:05:32.789Z,79.2
2022-12-02T01:06:32.753Z,79.2
2022-12-02T01:07:32.873Z,79.2
2022-12-02T01:08:32.758Z,79.2
2022-12-02T01:09:32.740Z,79.2
2022-12-02T01:10:32.760Z,79.2
2022-12-02T01:11:32.753Z,79.2
2022-12-02T01:12:32.758Z,79.2
2022-12-02T01:13:32.807Z,79.2
2022-12-02T01:14:32.752Z,79.2
2022-12-02T01:15:32.755Z,79.2
2022-12-02T01:16:32.861Z,79.2
2022-12-02T01:17:32.761Z,79.2
2022-12-02T01:18:32.767Z,79.2
2022-12-02T01:19:32.765Z,79.2
2022-12-02T01:20:32.733Z,79.2
2022-12-02T01:21:32.776Z,79.2
2022-12-02T01:22:32.769Z,79.2
2022-12-02T01:23:32.759Z,79.2
2022-12-02T01:24:32.817Z,79.2
2022-12-02T01:25:32.755Z,79.2
2022-12-02T01:26:32.775Z,79.2
2022-12-02T01:27:32.774Z,79.2
2022-12-02T01:28:32.761Z,79.2
2022-12-02T01:29:32.774Z,79.2
2022-12-02T01:30:32.763Z,79.2
2022-12-02T01:31:32.847Z,79.2
2022-12-02T01:32:32.761Z,79.2
2022-12-02T01:33:32.760Z,79.2
2022-12-02T01:34:32.785Z,79.2
2022-12-02T01:35:32.779Z,79.2
2022-12-02T01:36:32.777Z,79.2
2022-12-02T01:37:32.791Z,79.2
2022-12-02T01:38:32.772Z,79.2
2022-12-02T01:39:32.800Z,79.2
2022-12-02T01:40:32.779Z,79.2
2022-12-02T01:41:32.805Z,79.2
2022-12-02T01:42:32.760Z,79.2
2022-12-02T01:43:32.753Z,79.2
2022-12-02T01:44:32.756Z,79.2
2022-12-02T01:45:32.879Z,79.2
2022-12-02T01:46:32.854Z,79.2
2022-12-02T01:47:32.759Z,79.2
2022-12-02T01:48:32.781Z,79.2
2022-12-02T01:49:32.755Z,79.2
2022-12-02T01:50:32.751Z,79.2
2022-12-02T01:51:32.776Z,79.2
2022-12-02T01:52:32.774Z,79.2
2022-12-02T01:53:32.746Z,79.2
2022-12-02T01:54:32.795Z,79.2
2022-12-02T01:55:32.778Z,79.4
2022-12-02T01:56:32.812Z,79.4
2022-12-02T01:57:32.780Z,79.4
2022-12-02T01:58:32.822Z,79.4
2022-12-02T01:59:32.784Z,79.4
2022-12-02T02:00:32.780Z,79.4
2022-12-02T02:01:32.922Z,79.4
2022-12-02T02:02:32.856Z,79.4
2022-12-02T02:03:32.791Z,79.4
2022-12-02T02:04:32.794Z,79.4
2022-12-02T02:05:32.784Z,79.4
2022-12-02T02:06:32.781Z,79.4
2022-12-02T02:07:32.917Z,79.4
2022-12-02T02:08:32.787Z,79.4
2022-12-02T02:09:32.816Z,79.4
2022-12-02T02:10:32.814Z,79.4
2022-12-02T02:11:32.801Z,79.5
2022-12-02T02:12:32.793Z,79.5
2022-12-02T02:13:32.787Z,79.5
2022-12-02T02:14:32.783Z,79.5
2022-12-02T02:15:32.841Z,79.5
2022-12-02T02:16:32.880Z,79.5
2022-12-02T02:17:32.806Z,79.5
2022-12-02T02:18:32.807Z,79.5
2022-12-02T02:19:32.821Z,79.5
2022-12-02T02:20:32.880Z,79.5
2022-12-02T02:21:32.798Z,79.5
2022-12-02T02:22:32.804Z,79.5
2022-12-02T02:23:32.843Z,79.5
2022-12-02T02:24:32.837Z,79.5
2022-12-02T02:25:32.844Z,79.5
2022-12-02T02:26:32.834Z,79.5
2022-12-02T02:27:32.854Z,79.5
2022-12-02T02:28:32.836Z,79.5
2022-12-02T02:29:32.829Z,79.5
2022-12-02T02:30:32.897Z,79.5
2022-12-02T02:31:32.897Z,79.5
2022-12-02T02:32:32.825Z,79.5
2022-12-02T02:33:32.812Z,79.5
2022-12-02T02:34:32.830Z,79.5
2022-12-02T02:35:32.848Z,79.5
2022-12-02T02:36:32.889Z,79.5
2022-12-02T02:37:32.875Z,79.5
2022-12-02T02:38:32.846Z,79.5
2022-12-02T02:39:32.869Z,79.5
2022-12-02T02:40:32.821Z,79.5
2022-12-02T02:41:32.852Z,79.5
2022-12-02T02:42:32.831Z,79.5
2022-12-02T02:43:32.851Z,79.5
2022-12-02T02:44:32.852Z,79.5
2022-12-02T02:45:32.842Z,79.5
2022-12-02T02:46:32.989Z,79.5
2022-12-02T02:47:32.833Z,79.3
2022-12-02T02:48:32.844Z,79.3
2022-12-02T02:49:32.844Z,79.3
2022-12-02T02:50:32.844Z,79.3
2022-12-02T02:51:32.835Z,79.3
2022-12-02T02:52:32.838Z,79.3
2022-12-02T02:53:32.850Z,79.3
2022-12-02T02:54:32.850Z,79.3
2022-12-02T02:55:32.841Z,79.3
2022-12-02T02:56:32.933Z,79.3
2022-12-02T02:57:32.854Z,79.3
2022-12-02T02:58:32.853Z,79.3
2022-12-02T02:59:32.836Z,79.3
2022-12-02T03:00:32.876Z,79.3
2022-12-02T03:01:32.926Z,79.3
2022-12-02T03:02:33.002Z,79.3
2022-12-02T03:03:32.864Z,79.3
2022-12-02T03:04:32.911Z,79.3
2022-12-02T03:05:32.958Z,79.3
2022-12-02T03:06:32.872Z,79.3
2022-12-02T03:07:32.948Z,79.3
2022-12-02T03:08:32.866Z,79.3
2022-12-02T03:09:32.859Z,79.3
2022-12-02T03:10:32.854Z,79.3
2022-12-02T03:11:32.870Z,79.3
2022-12-02T03:12:32.857Z,79.3
2022-12-02T03:13:32.877Z,79.3
2022-12-02T03:14:32.883Z,79.3
2022-12-02T03:15:32.860Z,79.3
2022-12-02T03:16:32.948Z,79.3
2022-12-02T03:17:32.884Z,79.3
2022-12-02T03:18:32.884Z,79.3
2022-12-02T03:19:32.878Z,79.3
2022-12-02T03:20:32.894Z,79.3
2022-12-02T03:21:32.949Z,79.3
2022-12-02T03:22:32.889Z,79.3
2022-12-02T03:23:32.868Z,79.3
2022-12-02T03:24:32.851Z,79.3
2022-12-02T03:25:32.935Z,79.3
2022-12-02T03:26:32.919Z,79.3
2022-12-02T03:27:32.901Z,79.3
2022-12-02T03:28:32.874Z,79.3
2022-12-02T03:29:32.886Z,79.3
2022-12-02T03:30:32.986Z,79.3
2022-12-02T03:31:32.993Z,79.3
2022-12-02T03:32:32.919Z,79.3
2022-12-02T03:33:32.889Z,79.3
2022-12-02T03:34:32.906Z,79.3
2022-12-02T03:35:32.931Z,79.3
2022-12-02T03:36:32.891Z,79.3
2022-12-02T03:37:32.963Z,79.3
2022-12-02T03:38:32.940Z,79.3
2022-12-02T03:39:32.920Z,79.6
2022-12-02T03:40:32.918Z,79.6
2022-12-02T03:41:32.956Z,79.6
2022-12-02T03:42:32.926Z,79.6
2022-12-02T03:43:32.919Z,79.6
2022-12-02T03:44:32.920Z,79.6
2022-12-02T03:45:32.921Z,79.6
2022-12-02T03:46:33.085Z,79.6
2022-12-02T03:47:32.964Z,79.6
2022-12-02T03:48:32.943Z,79.6
2022-12-02T03:49:32.905Z,79.6
2022-12-02T03:50:32.943Z,79.6
2022-12-02T03:51:32.933Z,79.6
2022-12-02T03:52:32.952Z,79.6
2022-12-02T03:53:32.958Z,79.6
2022-12-02T03:54:32.974Z,79.6
2022-12-02T03:55:32.963Z,79.6
2022-12-02T03:56:32.928Z,79.6
2022-12-02T03:57:32.941Z,79.6
2022-12-02T03:58:32.944Z,79.6
2022-12-02T03:59:32.939Z,79.6
2022-12-02T04:00:33.033Z,79.6
2022-12-02T04:01:32.991Z,79.6
2022-12-02T04:02:33.003Z,79.6
2022-12-02T04:03:32.952Z,79.6
2022-12-02T04:04:32.971Z,79.6
2022-12-02T04:05:32.962Z,79.6
2022-12-02T04:06:33.008Z,79.6
2022-12-02T04:07:33.012Z,79.6
2022-12-02T04:08:32.965Z,79.6
2022-12-02T04:09:32.942Z,79.6
2022-12-02T04:10:32.981Z,79.6
2022-12-02T04:11:32.978Z,79.6
2022-12-02T04:12:32.991Z,79.6
2022-12-02T04:13:32.950Z,79.6
2022-12-02T04:14:32.970Z,79.6
2022-12-02T04:15:33.009Z,79.6
2022-12-02T04:16:32.952Z,79.6
2022-12-02T04:17:32.970Z,79.6
2022-12-02T04:18:32.966Z,79.6
2022-12-02T04:19:32.960Z,79.6
2022-12-02T04:20:33.013Z,79.6
2022-12-02T04:21:32.963Z,79.6
2022-12-02T04:22:32.965Z,79.6
2022-12-02T04:23:32.968Z,79.6
2022-12-02T04:24:32.970Z,79.6
2022-12-02T04:25:32.948Z,79.6
2022-12-02T04:26:33.019Z,79.6
2022-12-02T04:27:32.960Z,79.6
2022-12-02T04:28:32.983Z,79.6
2022-12-02T04:29:32.977Z,79.6
2022-12-02T04:30:32.983Z,79.6
2022-12-02T04:31:33.026Z,79.6
2022-12-02T04:32:32.971Z,79.6
2022-12-02T04:33:32.944Z,79.6
2022-12-02T04:34:32.965Z,79.6
2022-12-02T04:35:32.976Z,80.1
2022-12-02T04:36:32.973Z,80.1
2022-12-02T04:37:33.058Z,80.1
2022-12-02T04:38:32.961Z,80.1
2022-12-02T04:39:32.972Z,80.1
2022-12-02T04:40:32.963Z,80.1
2022-12-02T04:41:33.021Z,80.1
2022-12-02T04:42:32.957Z,80.1
2022-12-02T04:43:32.953Z,80.1
2022-12-02T04:44:33.017Z,80.1
2022-12-02T04:45:32.995Z,80.1
2022-12-02T04:46:33.052Z,80.1
2022-12-02T04:47:33.011Z,80.1
2022-12-02T04:48:32.983Z,80.1
2022-12-02T04:49:32.999Z,80.1
2022-12-02T04:50:32.983Z,80.1
2022-12-02T04:51:32.963Z,80.1
2022-12-02T04:52:33.004Z,80.1
2022-12-02T04:53:32.993Z,80.1
2022-12-02T04:54:33.001Z,80.1
2022-12-02T04:55:33.050Z,80.1
2022-12-02T04:56:33.000Z,80.1
2022-12-02T04:57:33.002Z,80.1
2022-12-02T04:58:33.018Z,80.1
2022-12-02T04:59:33.008Z,80.1
2022-12-02T05:00:32.995Z,80.1
2022-12-02T05:01:32.997Z,80.1
2022-12-02T05:02:33.008Z,80.1
2022-12-02T05:03:33.003Z,80.1
2022-12-02T05:04:38.453Z,80.1
2022-12-02T05:05:33.026Z,80.1
2022-12-02T05:06:33.009Z,80.1
2022-12-02T05:07:33.045Z,80.1
2022-12-02T05:08:32.997Z,80.1
2022-12-02T05:09:33.016Z,80.1
2022-12-02T05:10:33.062Z,80.1
2022-12-02T05:11:36.311Z,80.1
2022-12-02T05:12:33.007Z,80.1
2022-12-02T05:13:33.047Z,80.1
2022-12-02T05:14:33.044Z,80.1
2022-12-02T05:15:33.019Z,80.1
2022-12-02T05:16:33.118Z,80.1
2022-12-02T05:17:33.018Z,80.1
2022-12-02T05:18:33.019Z,80.1
2022-12-02T05:19:33.013Z,80.1
2022-12-02T05:20:33.014Z,80.2
2022-12-02T05:21:33.030Z,80.2
2022-12-02T05:22:33.066Z,80.2
2022-12-02T05:23:33.138Z,80.2
2022-12-02T05:24:33.075Z,80.2
2022-12-02T05:25:33.037Z,80.2
2022-12-02T05:26:33.044Z,80.2
2022-12-02T05:27:35.627Z,80.3
2022-12-02T05:28:33.090Z,80.3
2022-12-02T05:29:33.026Z,80.3
2022-12-02T05:30:33.012Z,80.3
2022-12-02T05:31:33.084Z,80.3
2022-12-02T05:32:33.042Z,80.3
2022-12-02T05:33:33.023Z,80.3
2022-12-02T05:34:33.009Z,80.3
2022-12-02T05:35:33.098Z,80.3
2022-12-02T05:36:33.051Z,80.3
2022-12-02T05:37:33.033Z,80.3
2022-12-02T05:38:33.050Z,80.3
2022-12-02T05:39:33.059Z,80.3
2022-12-02T05:40:33.053Z,80.3
2022-12-02T05:41:33.051Z,80.3
2022-12-02T05:42:33.046Z,80.3
2022-12-02T05:43:33.042Z,80.3
2022-12-02T05:44:38.024Z,80.3
2022-12-02T05:45:33.069Z,80.3
2022-12-02T05:46:33.145Z,80.3
2022-12-02T05:47:33.043Z,80.3
2022-12-02T05:48:33.052Z,80.3
2022-12-02T05:49:33.038Z,80.3
2022-12-02T05:50:33.071Z,80.3
2022-12-02T05:51:33.072Z,80.3
2022-12-02T05:52:33.048Z,80.3
2022-12-02T05:53:33.040Z,80.3
2022-12-02T05:54:33.059Z,80.3
2022-12-02T05:55:33.092Z,80.3
2022-12-02T05:56:33.064Z,80.3
2022-12-02T05:57:33.037Z,80.3
2022-12-02T05:58:33.038Z,80.3
2022-12-02T05:59:33.038Z,80.3
2022-12-02T06:00:33.049Z,80.3
2022-12-02T06:01:33.119Z,80.3
2022-12-02T06:02:38.842Z,80.3
2022-12-02T06:03:33.174Z,80.3
2022-12-02T06:04:33.065Z,80.3
2022-12-02T06:05:33.092Z,80.3
2022-12-02T06:06:33.151Z,80.3
2022-12-02T06:07:33.080Z,80.3
2022-12-02T06:08:39.191Z,80.3
2022-12-02T06:09:33.081Z,80.3
2022-12-02T06:10:33.122Z,80.3
2022-12-02T06:11:33.065Z,80.3
2022-12-02T06:12:33.062Z,80.3
2022-12-02T06:13:33.054Z,80.3
2022-12-02T06:14:33.095Z,80.3
2022-12-02T06:15:33.059Z,80.3
2022-12-02T06:16:33.224Z,80.3
2022-12-02T06:17:33.102Z,80.3
2022-12-02T06:18:33.079Z,80.3
2022-12-02T06:19:35.907Z,80.3
2022-12-02T06:20:33.099Z,80.3
2022-12-02T06:21:33.105Z,80.3
2022-12-02T06:22:33.173Z,80.3
2022-12-02T06:23:33.098Z,80.3
2022-12-02T06:24:33.088Z,80.3
2022-12-02T06:25:33.143Z,80.8
2022-12-02T06:26:33.129Z,80.8
2022-12-02T06:27:33.120Z,80.8
2022-12-02T06:28:33.128Z,80.8
2022-12-02T06:29:33.112Z,80.8
2022-12-02T06:30:33.112Z,80.8
2022-12-02T06:31:33.164Z,80.8
2022-12-02T06:32:33.139Z,80.8
2022-12-02T06:33:33.129Z,80.8
2022-12-02T06:34:33.122Z,80.8
2022-12-02T06:35:33.179Z,80.8
2022-12-02T06:36:33.129Z,80.8
2022-12-02T06:37:33.114Z,80.8
2022-12-02T06:38:33.122Z,80.8
2022-12-02T06:39:33.101Z,80.8
2022-12-02T06:40:33.155Z,80.8
2022-12-02T06:41:33.147Z,80.8
2022-12-02T06:42:33.119Z,80.8
2022-12-02T06:43:33.150Z,80.8
2022-12-02T06:44:33.134Z,80.8
2022-12-02T06:45:33.319Z,80.6
2022-12-02T06:46:33.127Z,80.6
2022-12-02T06:47:33.174Z,80.6
2022-12-02T06:48:33.125Z,80.6
2022-12-02T06:49:33.136Z,80.6
2022-12-02T06:50:37.542Z,80.6
2022-12-02T06:51:33.183Z,80.6
2022-12-02T06:52:33.129Z,80.6
2022-12-02T06:53:33.128Z,80.6
2022-12-02T06:54:33.182Z,80.6
2022-12-02T06:55:33.142Z,80.6
2022-12-02T06:56:33.136Z,80.6
2022-12-02T06:57:33.198Z,80.6
2022-12-02T06:58:33.128Z,80.6
2022-12-02T06:59:33.127Z,80.6
2022-12-02T07:00:33.132Z,80.6
2022-12-02T07:01:33.205Z,80.6
2022-12-02T07:02:33.196Z,80.6
2022-12-02T07:03:33.192Z,80.6
2022-12-02T07:04:33.135Z,80.6
2022-12-02T07:05:33.224Z,80.6
2022-12-02T07:06:33.150Z,80.6
2022-12-02T07:07:33.184Z,80.6
2022-12-02T07:08:33.138Z,80.6
2022-12-02T07:09:33.132Z,80.6
2022-12-02T07:10:33.154Z,80.6
2022-12-02T07:11:33.158Z,80.6
2022-12-02T07:12:33.152Z,80.6
2022-12-02T07:13:33.143Z,80.6
2022-12-02T07:14:33.190Z,80.6
2022-12-02T07:15:33.162Z,80.6
2022-12-02T07:16:33.267Z,80.6
2022-12-02T07:17:33.161Z,80.6
2022-12-02T07:18:33.186Z,80.6
2022-12-02T07:19:33.163Z,80.6
2022-12-02T07:20:33.184Z,80.6
2022-12-02T07:21:33.153Z,80.6
2022-12-02T07:22:33.151Z,80.6
2022-12-02T07:23:33.150Z,80.6
2022-12-02T07:24:33.158Z,81.1
2022-12-02T07:25:33.208Z,81.1
2022-12-02T07:26:33.189Z,81.1
2022-12-02T07:27:33.213Z,81.1
2022-12-02T07:28:33.177Z,81.2
2022-12-02T07:29:33.160Z,81.2
2022-12-02T07:30:33.359Z,81.2
2022-12-02T07:31:33.185Z,81.2
2022-12-02T07:32:33.188Z,81.2
2022-12-02T07:33:33.200Z,81.2
2022-12-02T07:34:34.423Z,81.2
2022-12-02T07:35:33.187Z,81.2
2022-12-02T07:36:33.222Z,81.2
2022-12-02T07:37:33.204Z,81.2
2022-12-02T07:39:04.296Z,81.2
2022-12-02T07:39:33.226Z,81.2
2022-12-02T07:40:33.186Z,81.2
2022-12-02T07:41:36.439Z,81.2
2022-12-02T07:42:33.212Z,81.2
2022-12-02T07:43:33.166Z,81.2
2022-12-02T07:44:33.212Z,81.2
2022-12-02T07:45:33.204Z,81.2
2022-12-02T07:46:33.317Z,81.2
2022-12-02T07:47:33.206Z,81.2
2022-12-02T07:48:33.219Z,81.2
2022-12-02T07:49:33.258Z,81.2
2022-12-02T07:50:33.242Z,81.2
2022-12-02T07:51:33.219Z,81.2
2022-12-02T07:52:33.249Z,81.2
2022-12-02T07:53:33.211Z,81.2
2022-12-02T07:54:33.219Z,81.2
2022-12-02T07:55:33.228Z,81.2
2022-12-02T07:56:33.228Z,81.2
2022-12-02T07:57:34.660Z,81.2
2022-12-02T07:59:09.554Z,81.2
2022-12-02T07:59:33.229Z,81.2
2022-12-02T08:00:33.232Z,81.2
2022-12-02T08:01:33.304Z,81.2
2022-12-02T08:02:33.205Z,81.2
2022-12-02T08:03:33.239Z,81.2
2022-12-02T08:04:33.331Z,81.2
2022-12-02T08:05:33.251Z,81.2
2022-12-02T08:06:38.746Z,81.2
2022-12-02T08:07:33.253Z,81.2
2022-12-02T08:08:33.231Z,81.2
2022-12-02T08:09:33.222Z,81.2
2022-12-02T08:10:33.274Z,81.2
2022-12-02T08:11:33.228Z,81.2
2022-12-02T08:12:33.218Z,81.2
2022-12-02T08:13:33.216Z,81.2
2022-12-02T08:14:33.216Z,81.2
2022-12-02T08:15:33.231Z,81.2
2022-12-02T08:16:33.255Z,81.2
2022-12-02T08:17:33.259Z,81.2
2022-12-02T08:18:33.218Z,81.2
2022-12-02T08:19:33.229Z,81.2
2022-12-02T08:20:33.232Z,81
2022-12-02T08:21:33.210Z,81
2022-12-02T08:22:33.227Z,81
2022-12-02T08:23:33.222Z,81
2022-12-02T08:24:33.235Z,81
2022-12-02T08:25:33.264Z,81
2022-12-02T08:26:33.229Z,81
2022-12-02T08:27:33.243Z,81
2022-12-02T08:28:33.234Z,81
2022-12-02T08:29:33.222Z,81
2022-12-02T08:30:33.299Z,81
2022-12-02T08:31:33.257Z,81
2022-12-02T08:32:33.233Z,81
2022-12-02T08:33:33.242Z,81
2022-12-02T08:34:33.233Z,81
2022-12-02T08:35:33.227Z,81
2022-12-02T08:36:33.260Z,81
2022-12-02T08:37:33.235Z,81.1
2022-12-02T08:38:33.243Z,81.1
2022-12-02T08:39:33.223Z,81.1
2022-12-02T08:40:33.244Z,81.1
2022-12-02T08:41:33.244Z,81.1
2022-12-02T08:42:33.384Z,81.1
2022-12-02T08:43:33.263Z,81.1
2022-12-02T08:44:33.209Z,81.1
2022-12-02T08:45:33.270Z,81.1
2022-12-02T08:46:33.322Z,81.1
2022-12-02T08:47:33.261Z,81.1
2022-12-02T08:48:33.212Z,81.1
2022-12-02T08:49:33.250Z,81.1
2022-12-02T08:50:33.245Z,81.1
2022-12-02T08:51:33.255Z,81.1
2022-12-02T08:52:33.251Z,81.1
2022-12-02T08:53:33.251Z,81.1
2022-12-02T08:54:33.283Z,81.1
2022-12-02T08:55:33.214Z,81.1
2022-12-02T08:56:33.249Z,81.1
2022-12-02T08:57:33.270Z,81.1
2022-12-02T08:58:33.246Z,81.1
2022-12-02T08:59:33.248Z,81.1
2022-12-02T09:00:38.508Z,81.1
2022-12-02T09:01:33.259Z,81.1
2022-12-02T09:02:33.296Z,81.1
2022-12-02T09:03:33.257Z,81.1
2022-12-02T09:04:33.281Z,81.1
2022-12-02T09:05:33.255Z,81.1
2022-12-02T09:06:36.253Z,81.1
2022-12-02T09:07:33.230Z,81.1
2022-12-02T09:08:33.304Z,81.1
2022-12-02T09:09:33.227Z,81.1
2022-12-02T09:10:33.309Z,81.1
2022-12-02T09:11:33.215Z,81.1
2022-12-02T09:12:33.257Z,81.5
2022-12-02T09:13:33.251Z,81.5
2022-12-02T09:14:33.260Z,81.5
2022-12-02T09:15:33.250Z,81.5
2022-12-02T09:16:33.254Z,81.5
2022-12-02T09:17:33.259Z,81.5
2022-12-02T09:18:33.251Z,81.5
2022-12-02T09:19:33.248Z,81.5
2022-12-02T09:20:33.257Z,81.5
2022-12-02T09:21:33.265Z,81.5
2022-12-02T09:22:33.305Z,81.5
2022-12-02T09:23:33.280Z,81.5
2022-12-02T09:24:33.262Z,81.5
2022-12-02T09:25:33.258Z,81.5
2022-12-02T09:26:33.241Z,81.5
2022-12-02T09:27:33.262Z,81.5
2022-12-02T09:28:33.295Z,81.5
2022-12-02T09:29:33.264Z,81.5
2022-12-02T09:30:33.264Z,81.5
2022-12-02T09:31:33.346Z,81.5
2022-12-02T09:32:33.261Z,81.5
2022-12-02T09:33:34.039Z,81.5
2022-12-02T09:34:33.315Z,81.5
2022-12-02T09:35:33.262Z,81.5
2022-12-02T09:36:33.283Z,81.5
2022-12-02T09:37:33.269Z,81.5
2022-12-02T09:38:33.273Z,81.5
2022-12-02T09:39:38.530Z,81.5
2022-12-02T09:40:33.324Z,81.5
2022-12-02T09:41:33.262Z,81.5
2022-12-02T09:42:33.270Z,81.5
2022-12-02T09:43:33.267Z,81.5
2022-12-02T09:44:33.256Z,81.5
2022-12-02T09:45:33.259Z,81.5
2022-12-02T09:46:33.356Z,81.5
2022-12-02T09:47:33.295Z,81.5
2022-12-02T09:48:33.265Z,81.5
2022-12-02T09:49:33.264Z,81.4
2022-12-02T09:50:33.260Z,81.4
2022-12-02T09:51:33.271Z,81.4
2022-12-02T09:52:33.298Z,81.4
2022-12-02T09:53:33.269Z,81.4
2022-12-02T09:54:33.239Z,81.4
2022-12-02T09:55:33.270Z,81.4
2022-12-02T09:56:33.260Z,81.4
2022-12-02T09:57:39.974Z,81.4
2022-12-02T09:58:33.281Z,81.4
2022-12-02T09:59:33.312Z,81.4
2022-12-02T10:00:33.552Z,81.4
2022-12-02T10:01:33.312Z,81.4
2022-12-02T10:02:33.333Z,81.4
2022-12-02T10:03:33.293Z,81.4
2022-12-02T10:04:33.243Z,81.4
2022-12-02T10:05:33.345Z,81.4
2022-12-02T10:06:33.248Z,81.4
2022-12-02T10:07:33.291Z,81.4
2022-12-02T10:08:33.283Z,81.4
2022-12-02T10:09:33.260Z,81.4
2022-12-02T10:10:33.245Z,81.4
2022-12-02T10:11:33.248Z,81.2
2022-12-02T10:12:33.243Z,81.2
2022-12-02T10:13:33.290Z,81.2
2022-12-02T10:14:33.240Z,81.2
2022-12-02T10:15:33.288Z,81.2
2022-12-02T10:16:33.318Z,81.2
2022-12-02T10:17:33.279Z,81.2
2022-12-02T10:18:33.247Z,81.2
2022-12-02T10:19:33.315Z,81.2
2022-12-02T10:20:33.288Z,81.2
2022-12-02T10:21:33.268Z,81.2
2022-12-02T10:22:33.255Z,81.2
2022-12-02T10:23:39.137Z,81.2
2022-12-02T10:24:33.299Z,81.2
2022-12-02T10:25:33.302Z,81.2
2022-12-02T10:26:33.260Z,81.2
2022-12-02T10:27:33.291Z,81.2
2022-12-02T10:28:33.295Z,81.2
2022-12-02T10:29:33.275Z,81.2
2022-12-02T10:30:33.327Z,81.2
2022-12-02T10:31:33.385Z,81.2
2022-12-02T10:32:33.275Z,81.2
2022-12-02T10:33:33.262Z,81.2
2022-12-02T10:34:33.260Z,81.2
2022-12-02T10:35:33.304Z,81.2
2022-12-02T10:36:33.299Z,81.2
2022-12-02T10:37:33.270Z,81.2
2022-12-02T10:38:33.320Z,81.2
2022-12-02T10:39:37.793Z,81.2
2022-12-02T10:40:33.306Z,81.2
2022-12-02T10:41:33.270Z,81.2
2022-12-02T10:42:33.317Z,81.2
2022-12-02T10:43:33.263Z,81.2
2022-12-02T10:44:33.260Z,81.2
2022-12-02T10:45:33.294Z,81.2
2022-12-02T10:46:33.323Z,81.2
2022-12-02T10:47:33.264Z,81.2
2022-12-02T10:48:33.296Z,81.2
2022-12-02T10:49:33.345Z,81.2
2022-12-02T10:50:33.291Z,81.2
2022-12-02T10:51:33.317Z,81.2
2022-12-02T10:52:33.294Z,81.2
2022-12-02T10:53:33.340Z,81.2
2022-12-02T10:54:36.803Z,81.2
2022-12-02T10:55:33.298Z,81.2
2022-12-02T10:56:33.299Z,81.2
2022-12-02T10:57:33.287Z,81.2
2022-12-02T10:58:33.291Z,81.2
2022-12-02T10:59:33.390Z,81.2
2022-12-02T11:00:33.355Z,81.4
2022-12-02T11:01:33.414Z,81.4
2022-12-02T11:02:33.448Z,81.4
2022-12-02T11:03:33.286Z,81.4
2022-12-02T11:04:33.291Z,81.4
2022-12-02T11:05:33.346Z,81.4
2022-12-02T11:06:33.391Z,81.4
2022-12-02T11:07:33.394Z,81
2022-12-02T11:08:33.285Z,81
2022-12-02T11:09:40.807Z,81
2022-12-02T11:10:33.288Z,81
2022-12-02T11:11:33.318Z,81
2022-12-02T11:12:33.286Z,81
2022-12-02T11:13:35.332Z,81
2022-12-02T11:14:33.294Z,81
2022-12-02T11:15:33.303Z,81
2022-12-02T11:16:33.431Z,81
2022-12-02T11:17:33.342Z,81
2022-12-02T11:18:33.321Z,81
2022-12-02T11:19:33.311Z,81
2022-12-02T11:20:33.285Z,81
2022-12-02T11:21:33.301Z,81
2022-12-02T11:22:33.340Z,81
2022-12-02T11:23:33.307Z,81
2022-12-02T11:24:33.308Z,81
2022-12-02T11:25:33.355Z,81
2022-12-02T11:26:33.617Z,81
2022-12-02T11:27:33.315Z,81
2022-12-02T11:28:33.310Z,81
2022-12-02T11:29:33.329Z,81
2022-12-02T11:30:33.620Z,81
2022-12-02T11:31:33.410Z,81
2022-12-02T11:32:33.298Z,81
2022-12-02T11:33:33.297Z,81
2022-12-02T11:34:53.870Z,81
2022-12-02T11:35:33.301Z,81
2022-12-02T11:36:33.347Z,81
2022-12-02T11:37:33.318Z,81
2022-12-02T11:38:33.303Z,81
2022-12-02T11:39:33.349Z,81
2022-12-02T11:40:33.317Z,81
2022-12-02T11:41:33.300Z,81
2022-12-02T11:42:33.344Z,81
2022-12-02T11:43:33.304Z,81
2022-12-02T11:44:33.334Z,81
2022-12-02T11:45:33.371Z,81
2022-12-02T11:46:33.321Z,81
2022-12-02T11:47:33.322Z,81
2022-12-02T11:48:33.343Z,81
2022-12-02T11:49:33.306Z,81
2022-12-02T11:50:33.326Z,81
2022-12-02T11:51:33.331Z,81
2022-12-02T11:52:33.315Z,81
2022-12-02T11:53:33.296Z,81
2022-12-02T11:54:33.307Z,81
2022-12-02T11:55:33.330Z,81
2022-12-02T11:56:33.360Z,81
2022-12-02T11:57:33.298Z,81
2022-12-02T11:58:33.307Z,81
2022-12-02T11:59:33.315Z,81
2022-12-02T12:00:37.899Z,81
2022-12-02T12:01:33.296Z,81
2022-12-02T12:02:33.401Z,81.7
2022-12-02T12:03:33.394Z,81.7
2022-12-02T12:04:33.294Z,81.7
2022-12-02T12:05:33.318Z,81.7
2022-12-02T12:06:33.318Z,81.7
2022-12-02T12:07:33.369Z,81.7
2022-12-02T12:08:33.299Z,81.7
2022-12-02T12:09:33.319Z,81.7
2022-12-02T12:10:33.334Z,81.7
2022-12-02T12:11:33.335Z,81.7
2022-12-02T12:12:33.304Z,81.7
2022-12-02T12:13:37.077Z,81.7
2022-12-02T12:14:33.293Z,81.7
2022-12-02T12:15:33.313Z,81.7
2022-12-02T12:16:33.452Z,81.7
2022-12-02T12:17:33.305Z,81.7
2022-12-02T12:18:33.350Z,81.7
2022-12-02T12:19:33.320Z,81.7
2022-12-02T12:20:33.304Z,81.7
2022-12-02T12:21:33.308Z,81.7
2022-12-02T12:22:33.357Z,81.7
2022-12-02T12:23:33.318Z,81.7
2022-12-02T12:24:33.325Z,81.7
2022-12-02T12:25:33.301Z,81.7
2022-12-02T12:26:33.321Z,81.7
2022-12-02T12:27:33.298Z,82.5
2022-12-02T12:28:33.311Z,82.5
2022-12-02T12:29:33.312Z,82.5
2022-12-02T12:30:33.442Z,82.5
2022-12-02T12:31:37.988Z,82.5
2022-12-02T12:32:33.297Z,82.5
2022-12-02T12:33:33.322Z,82.5
2022-12-02T12:34:33.317Z,82.5
2022-12-02T12:35:33.349Z,82.5
2022-12-02T12:36:33.362Z,82.5
2022-12-02T12:37:33.310Z,82.5
2022-12-02T12:38:33.338Z,82.5
2022-12-02T12:39:33.317Z,82.5
2022-12-02T12:40:33.365Z,82.5
2022-12-02T12:41:58.435Z,82.5
2022-12-02T12:42:33.299Z,82.5
2022-12-02T12:43:33.323Z,82.5
2022-12-02T12:44:33.492Z,82.5
2022-12-02T12:45:33.326Z,82.5
2022-12-02T12:46:33.446Z,82.5
2022-12-02T12:47:33.309Z,82.5
2022-12-02T12:48:33.327Z,82.5
2022-12-02T12:49:33.479Z,82.5
2022-12-02T12:50:33.398Z,82.5
2022-12-02T12:51:33.339Z,82.5
2022-12-02T12:52:33.323Z,82.5
2022-12-02T12:53:33.337Z,82.5
2022-12-02T12:54:33.328Z,82.5
2022-12-02T12:55:33.315Z,82.5
2022-12-02T12:56:33.379Z,82.5
2022-12-02T12:57:33.314Z,82.5
2022-12-02T12:58:33.342Z,82.5
2022-12-02T12:59:33.339Z,83.2
2022-12-02T13:00:33.352Z,83.2
2022-12-02T13:01:33.398Z,83.2
2022-12-02T13:02:33.378Z,83.2
2022-12-02T13:03:33.332Z,83.2
2022-12-02T13:04:33.317Z,83.2
2022-12-02T13:05:33.403Z,83.2
2022-12-02T13:06:37.413Z,83.2
2022-12-02T13:07:33.527Z,83.2
2022-12-02T13:08:33.321Z,83.2
2022-12-02T13:09:33.312Z,83.2
2022-12-02T13:10:33.335Z,83.2
2022-12-02T13:11:33.332Z,83.2
2022-12-02T13:12:33.333Z,83.2
2022-12-02T13:13:33.324Z,83.2
2022-12-02T13:14:33.340Z,83.2
2022-12-02T13:15:33.361Z,83.2
2022-12-02T13:16:33.462Z,83.2
2022-12-02T13:17:33.316Z,83.2
2022-12-02T13:18:33.356Z,83.2
2022-12-02T13:19:33.325Z,83.2
2022-12-02T13:20:33.336Z,83.2
2022-12-02T13:21:33.319Z,83.2
2022-12-02T13:22:33.347Z,83.2
2022-12-02T13:23:33.311Z,83.2